sensor_id;sensor_type;location;lat;lon;timestamp;temperature;humidity
51733;DHT22;39139;53.144;6.244;2023-07-24T00:01:39;17.20;99.90
51733;DHT22;39139;53.144;6.244;2023-07-24T00:04:05;17.20;99.90
51733;DHT22;39139;53.144;6.244;2023-07-24T00:06:31;17.20;99.90
51733;DHT22;39139;53.144;6.244;2023-07-24T00:08:56;17.20;99.90
51733;DHT22;39139;53.144;6.244;2023-07-24T00:11:22;17.20;99.90
51733;DHT22;39139;53.144;6.244;2023-07-24T00:13:48;17.20;99.90
51733;DHT22;39139;53.144;6.244;2023-07-24T00:16:13;17.20;99.90
51733;DHT22;39139;53.144;6.244;2023-07-24T00:18:39;17.20;99.90
51733;DHT22;39139;53.144;6.244;2023-07-24T00:21:06;17.20;99.90
51733;DHT22;39139;53.144;6.244;2023-07-24T00:23:32;17.20;99.90
51733;DHT22;39139;53.144;6.244;2023-07-24T00:25:57;17.20;99.90
51733;DHT22;39139;53.144;6.244;2023-07-24T00:28:23;17.20;99.90
51733;DHT22;39139;53.144;6.244;2023-07-24T00:30:49;17.20;99.90
51733;DHT22;39139;53.144;6.244;2023-07-24T00:33:14;17.20;99.90
51733;DHT22;39139;53.144;6.244;2023-07-24T00:35:40;17.20;99.90
51733;DHT22;39139;53.144;6.244;2023-07-24T00:38:06;17.20;99.90
51733;DHT22;39139;53.144;6.244;2023-07-24T00:40:31;17.20;99.90
51733;DHT22;39139;53.144;6.244;2023-07-24T00:42:57;17.20;99.90
51733;DHT22;39139;53.144;6.244;2023-07-24T00:45:23;17.20;99.90
51733;DHT22;39139;53.144;6.244;2023-07-24T00:47:49;17.20;99.90
51733;DHT22;39139;53.144;6.244;2023-07-24T00:50:15;17.20;99.90
51733;DHT22;39139;53.144;6.244;2023-07-24T00:52:41;17.20;99.90
51733;DHT22;39139;53.144;6.244;2023-07-24T00:55:09;17.10;99.90
51733;DHT22;39139;53.144;6.244;2023-07-24T00:57:36;17.10;99.90
51733;DHT22;39139;53.144;6.244;2023-07-24T01:00:02;17.10;99.90
51733;DHT22;39139;53.144;6.244;2023-07-24T01:02:30;17.10;99.90
51733;DHT22;39139;53.144;6.244;2023-07-24T01:04:56;17.00;99.90
51733;DHT22;39139;53.144;6.244;2023-07-24T01:07:22;17.00;99.90
51733;DHT22;39139;53.144;6.244;2023-07-24T01:09:50;17.00;99.90
51733;DHT22;39139;53.144;6.244;2023-07-24T01:17:30;16.80;99.90
51733;DHT22;39139;53.144;6.244;2023-07-24T01:19:58;16.70;99.90
51733;DHT22;39139;53.144;6.244;2023-07-24T01:22:46;16.70;99.90
51733;DHT22;39139;53.144;6.244;2023-07-24T01:25:33;16.70;99.90
51733;DHT22;39139;53.144;6.244;2023-07-24T01:28:01;16.60;99.90
51733;DHT22;39139;53.144;6.244;2023-07-24T01:30:27;16.60;99.90
51733;DHT22;39139;53.144;6.244;2023-07-24T01:32:52;16.50;99.90
51733;DHT22;39139;53.144;6.244;2023-07-24T01:35:18;16.50;99.90
51733;DHT22;39139;53.144;6.244;2023-07-24T01:37:46;16.50;99.90
51733;DHT22;39139;53.144;6.244;2023-07-24T01:40:12;16.50;99.90
51733;DHT22;39139;53.144;6.244;2023-07-24T01:42:38;16.50;99.90
51733;DHT22;39139;53.144;6.244;2023-07-24T01:45:05;16.50;99.90
51733;DHT22;39139;53.144;6.244;2023-07-24T01:47:31;16.50;99.90
51733;DHT22;39139;53.144;6.244;2023-07-24T01:49:56;16.50;99.90
51733;DHT22;39139;53.144;6.244;2023-07-24T01:52:22;16.50;99.90
51733;DHT22;39139;53.144;6.244;2023-07-24T01:54:48;16.50;99.90
51733;DHT22;39139;53.144;6.244;2023-07-24T01:57:14;16.50;99.90
51733;DHT22;39139;53.144;6.244;2023-07-24T01:59:39;16.40;99.90
51733;DHT22;39139;53.144;6.244;2023-07-24T02:02:05;16.40;99.90
51733;DHT22;39139;53.144;6.244;2023-07-24T02:04:31;16.30;99.90
51733;DHT22;39139;53.144;6.244;2023-07-24T02:06:56;16.30;99.90
51733;DHT22;39139;53.144;6.244;2023-07-24T02:09:22;16.20;99.90
51733;DHT22;39139;53.144;6.244;2023-07-24T02:11:48;16.20;99.90
51733;DHT22;39139;53.144;6.244;2023-07-24T02:14:14;16.20;99.90
51733;DHT22;39139;53.144;6.244;2023-07-24T02:16:42;16.20;99.90
51733;DHT22;39139;53.144;6.244;2023-07-24T02:19:07;16.20;99.90
51733;DHT22;39139;53.144;6.244;2023-07-24T02:21:33;16.10;99.90
51733;DHT22;39139;53.144;6.244;2023-07-24T02:23:59;16.10;99.90
51733;DHT22;39139;53.144;6.244;2023-07-24T02:26:25;16.00;99.90
51733;DHT22;39139;53.144;6.244;2023-07-24T02:28:50;16.10;99.90
51733;DHT22;39139;53.144;6.244;2023-07-24T02:31:16;16.00;99.90
51733;DHT22;39139;53.144;6.244;2023-07-24T02:33:42;16.00;99.90
51733;DHT22;39139;53.144;6.244;2023-07-24T02:36:08;16.00;99.90
51733;DHT22;39139;53.144;6.244;2023-07-24T02:38:33;16.30;99.90
51733;DHT22;39139;53.144;6.244;2023-07-24T02:40:59;16.10;99.90
51733;DHT22;39139;53.144;6.244;2023-07-24T02:43:25;16.10;99.90
51733;DHT22;39139;53.144;6.244;2023-07-24T02:45:50;16.20;99.90
51733;DHT22;39139;53.144;6.244;2023-07-24T02:48:16;16.10;99.90
51733;DHT22;39139;53.144;6.244;2023-07-24T02:50:41;16.20;99.90
51733;DHT22;39139;53.144;6.244;2023-07-24T02:53:07;16.20;99.90
51733;DHT22;39139;53.144;6.244;2023-07-24T02:55:33;16.30;99.90
51733;DHT22;39139;53.144;6.244;2023-07-24T02:57:58;16.30;99.90
51733;DHT22;39139;53.144;6.244;2023-07-24T03:00:24;16.30;99.90
51733;DHT22;39139;53.144;6.244;2023-07-24T03:02:51;16.30;99.90
51733;DHT22;39139;53.144;6.244;2023-07-24T03:05:17;16.30;99.90
51733;DHT22;39139;53.144;6.244;2023-07-24T03:07:43;16.40;99.90
51733;DHT22;39139;53.144;6.244;2023-07-24T03:10:09;16.40;99.90
51733;DHT22;39139;53.144;6.244;2023-07-24T03:12:35;16.40;99.90
51733;DHT22;39139;53.144;6.244;2023-07-24T03:15:00;16.40;99.90
51733;DHT22;39139;53.144;6.244;2023-07-24T03:17:26;16.40;99.90
51733;DHT22;39139;53.144;6.244;2023-07-24T03:19:53;16.40;99.90
51733;DHT22;39139;53.144;6.244;2023-07-24T03:22:19;16.40;99.90
51733;DHT22;39139;53.144;6.244;2023-07-24T03:24:45;16.40;99.90
51733;DHT22;39139;53.144;6.244;2023-07-24T03:27:11;16.50;99.90
51733;DHT22;39139;53.144;6.244;2023-07-24T03:29:37;16.50;99.90
51733;DHT22;39139;53.144;6.244;2023-07-24T03:32:03;16.50;99.90
51733;DHT22;39139;53.144;6.244;2023-07-24T03:34:29;16.50;99.90
51733;DHT22;39139;53.144;6.244;2023-07-24T03:36:54;16.50;99.90
51733;DHT22;39139;53.144;6.244;2023-07-24T03:39:20;16.60;99.90
51733;DHT22;39139;53.144;6.244;2023-07-24T03:41:45;16.50;99.90
51733;DHT22;39139;53.144;6.244;2023-07-24T03:44:11;16.60;99.90
51733;DHT22;39139;53.144;6.244;2023-07-24T03:46:37;16.60;99.90
51733;DHT22;39139;53.144;6.244;2023-07-24T03:49:02;16.60;99.90
51733;DHT22;39139;53.144;6.244;2023-07-24T03:51:28;16.50;99.90
51733;DHT22;39139;53.144;6.244;2023-07-24T03:53:53;16.60;99.90
51733;DHT22;39139;53.144;6.244;2023-07-24T03:56:19;16.60;99.90
51733;DHT22;39139;53.144;6.244;2023-07-24T03:58:45;16.60;99.90
51733;DHT22;39139;53.144;6.244;2023-07-24T04:01:11;16.60;99.90
51733;DHT22;39139;53.144;6.244;2023-07-24T04:03:36;16.60;99.90
51733;DHT22;39139;53.144;6.244;2023-07-24T04:06:02;16.60;99.90
51733;DHT22;39139;53.144;6.244;2023-07-24T04:08:28;16.60;99.90
51733;DHT22;39139;53.144;6.244;2023-07-24T04:10:53;16.60;99.90
51733;DHT22;39139;53.144;6.244;2023-07-24T04:13:21;16.60;99.90
51733;DHT22;39139;53.144;6.244;2023-07-24T04:15:47;16.60;99.90
51733;DHT22;39139;53.144;6.244;2023-07-24T04:18:13;16.60;99.90
51733;DHT22;39139;53.144;6.244;2023-07-24T04:20:38;16.60;99.90
51733;DHT22;39139;53.144;6.244;2023-07-24T04:23:04;16.70;99.90
51733;DHT22;39139;53.144;6.244;2023-07-24T04:25:30;16.70;99.90
51733;DHT22;39139;53.144;6.244;2023-07-24T04:27:55;16.70;99.90
51733;DHT22;39139;53.144;6.244;2023-07-24T04:30:21;16.70;99.90
51733;DHT22;39139;53.144;6.244;2023-07-24T04:32:47;16.70;99.90
51733;DHT22;39139;53.144;6.244;2023-07-24T04:35:12;16.60;99.90
51733;DHT22;39139;53.144;6.244;2023-07-24T04:37:38;16.70;99.90
51733;DHT22;39139;53.144;6.244;2023-07-24T04:40:04;16.70;99.90
51733;DHT22;39139;53.144;6.244;2023-07-24T04:42:30;16.60;99.90
51733;DHT22;39139;53.144;6.244;2023-07-24T04:44:56;16.70;99.90
51733;DHT22;39139;53.144;6.244;2023-07-24T04:47:22;16.70;99.90
51733;DHT22;39139;53.144;6.244;2023-07-24T04:49:48;16.70;99.90
51733;DHT22;39139;53.144;6.244;2023-07-24T04:52:13;16.70;99.90
51733;DHT22;39139;53.144;6.244;2023-07-24T04:54:39;16.60;99.90
51733;DHT22;39139;53.144;6.244;2023-07-24T04:57:04;16.70;99.90
51733;DHT22;39139;53.144;6.244;2023-07-24T04:59:30;16.70;99.90
51733;DHT22;39139;53.144;6.244;2023-07-24T05:01:56;16.70;99.90
51733;DHT22;39139;53.144;6.244;2023-07-24T05:04:21;16.70;99.90
51733;DHT22;39139;53.144;6.244;2023-07-24T05:06:47;16.70;99.90
51733;DHT22;39139;53.144;6.244;2023-07-24T05:09:13;16.80;99.90
51733;DHT22;39139;53.144;6.244;2023-07-24T05:11:41;16.70;99.90
51733;DHT22;39139;53.144;6.244;2023-07-24T05:14:08;16.70;99.90
51733;DHT22;39139;53.144;6.244;2023-07-24T05:16:34;16.80;99.90
51733;DHT22;39139;53.144;6.244;2023-07-24T05:19:00;16.80;99.90
51733;DHT22;39139;53.144;6.244;2023-07-24T05:21:25;16.80;99.90
51733;DHT22;39139;53.144;6.244;2023-07-24T05:23:51;16.80;99.90
51733;DHT22;39139;53.144;6.244;2023-07-24T05:26:17;16.90;99.90
51733;DHT22;39139;53.144;6.244;2023-07-24T05:28:42;16.90;99.90
51733;DHT22;39139;53.144;6.244;2023-07-24T05:31:08;16.90;99.90
51733;DHT22;39139;53.144;6.244;2023-07-24T05:33:33;16.90;99.90
51733;DHT22;39139;53.144;6.244;2023-07-24T05:36:00;17.00;99.90
51733;DHT22;39139;53.144;6.244;2023-07-24T05:38:26;16.90;99.90
51733;DHT22;39139;53.144;6.244;2023-07-24T05:41:00;16.90;99.90
51733;DHT22;39139;53.144;6.244;2023-07-24T05:43:26;16.90;99.90
51733;DHT22;39139;53.144;6.244;2023-07-24T05:45:53;17.00;99.90
51733;DHT22;39139;53.144;6.244;2023-07-24T05:48:19;17.00;99.90
51733;DHT22;39139;53.144;6.244;2023-07-24T05:50:45;16.90;99.90
51733;DHT22;39139;53.144;6.244;2023-07-24T05:53:10;17.00;99.90
51733;DHT22;39139;53.144;6.244;2023-07-24T05:55:36;17.00;99.90
51733;DHT22;39139;53.144;6.244;2023-07-24T05:58:02;17.00;99.90
51733;DHT22;39139;53.144;6.244;2023-07-24T06:00:27;16.90;99.90
51733;DHT22;39139;53.144;6.244;2023-07-24T06:02:53;17.00;99.90
51733;DHT22;39139;53.144;6.244;2023-07-24T06:05:19;17.00;99.90
51733;DHT22;39139;53.144;6.244;2023-07-24T06:07:48;17.00;99.90
51733;DHT22;39139;53.144;6.244;2023-07-24T06:10:14;17.00;99.90
51733;DHT22;39139;53.144;6.244;2023-07-24T06:12:40;17.60;99.90
51733;DHT22;39139;53.144;6.244;2023-07-24T06:15:06;17.10;99.90
51733;DHT22;39139;53.144;6.244;2023-07-24T06:17:32;17.20;99.90
51733;DHT22;39139;53.144;6.244;2023-07-24T06:19:58;17.20;99.90
51733;DHT22;39139;53.144;6.244;2023-07-24T06:22:24;17.20;99.90
51733;DHT22;39139;53.144;6.244;2023-07-24T06:24:50;17.20;99.90
51733;DHT22;39139;53.144;6.244;2023-07-24T06:27:16;17.30;99.90
51733;DHT22;39139;53.144;6.244;2023-07-24T06:29:41;17.30;99.90
51733;DHT22;39139;53.144;6.244;2023-07-24T06:32:07;17.30;99.90
51733;DHT22;39139;53.144;6.244;2023-07-24T06:34:33;17.30;99.90
51733;DHT22;39139;53.144;6.244;2023-07-24T06:36:59;17.30;99.90
51733;DHT22;39139;53.144;6.244;2023-07-24T06:39:25;17.30;99.90
51733;DHT22;39139;53.144;6.244;2023-07-24T06:41:54;17.40;99.90
51733;DHT22;39139;53.144;6.244;2023-07-24T06:44:21;17.40;99.90
51733;DHT22;39139;53.144;6.244;2023-07-24T06:46:47;17.50;99.90
51733;DHT22;39139;53.144;6.244;2023-07-24T06:49:13;17.50;99.90
51733;DHT22;39139;53.144;6.244;2023-07-24T06:51:38;17.50;99.90
51733;DHT22;39139;53.144;6.244;2023-07-24T06:54:07;17.60;99.90
51733;DHT22;39139;53.144;6.244;2023-07-24T06:56:33;17.60;99.90
51733;DHT22;39139;53.144;6.244;2023-07-24T06:58:58;17.60;99.90
51733;DHT22;39139;53.144;6.244;2023-07-24T07:01:24;17.60;99.90
51733;DHT22;39139;53.144;6.244;2023-07-24T07:03:50;17.70;99.90
51733;DHT22;39139;53.144;6.244;2023-07-24T07:06:16;17.70;99.90
51733;DHT22;39139;53.144;6.244;2023-07-24T07:08:42;17.70;99.90
51733;DHT22;39139;53.144;6.244;2023-07-24T07:11:07;17.70;99.90
51733;DHT22;39139;53.144;6.244;2023-07-24T07:13:33;17.80;99.90
51733;DHT22;39139;53.144;6.244;2023-07-24T07:15:59;17.80;99.90
51733;DHT22;39139;53.144;6.244;2023-07-24T07:18:24;17.80;99.90
51733;DHT22;39139;53.144;6.244;2023-07-24T07:20:52;17.90;99.90
51733;DHT22;39139;53.144;6.244;2023-07-24T07:23:18;17.90;99.90
51733;DHT22;39139;53.144;6.244;2023-07-24T07:25:43;17.90;99.90
51733;DHT22;39139;53.144;6.244;2023-07-24T07:28:17;17.90;99.90
51733;DHT22;39139;53.144;6.244;2023-07-24T07:30:44;17.90;99.90
51733;DHT22;39139;53.144;6.244;2023-07-24T07:33:10;17.90;99.90
51733;DHT22;39139;53.144;6.244;2023-07-24T07:35:36;18.00;99.90
51733;DHT22;39139;53.144;6.244;2023-07-24T07:38:03;17.40;99.90
51733;DHT22;39139;53.144;6.244;2023-07-24T07:40:29;18.10;99.90
51733;DHT22;39139;53.144;6.244;2023-07-24T07:42:56;18.10;99.90
51733;DHT22;39139;53.144;6.244;2023-07-24T07:45:22;18.20;99.90
51733;DHT22;39139;53.144;6.244;2023-07-24T07:47:48;18.20;99.90
51733;DHT22;39139;53.144;6.244;2023-07-24T07:50:14;18.30;99.90
51733;DHT22;39139;53.144;6.244;2023-07-24T07:52:40;18.30;99.90
51733;DHT22;39139;53.144;6.244;2023-07-24T07:55:06;18.40;99.90
51733;DHT22;39139;53.144;6.244;2023-07-24T07:57:35;18.50;99.90
51733;DHT22;39139;53.144;6.244;2023-07-24T08:00:04;18.50;99.90
51733;DHT22;39139;53.144;6.244;2023-07-24T08:02:31;18.50;99.90
51733;DHT22;39139;53.144;6.244;2023-07-24T08:04:57;18.50;99.90
51733;DHT22;39139;53.144;6.244;2023-07-24T08:07:23;18.50;99.90
51733;DHT22;39139;53.144;6.244;2023-07-24T08:09:49;18.50;99.90
51733;DHT22;39139;53.144;6.244;2023-07-24T08:12:14;18.50;99.90
51733;DHT22;39139;53.144;6.244;2023-07-24T08:14:40;18.60;99.90
51733;DHT22;39139;53.144;6.244;2023-07-24T08:17:06;18.50;99.90
51733;DHT22;39139;53.144;6.244;2023-07-24T08:19:31;18.50;99.90
51733;DHT22;39139;53.144;6.244;2023-07-24T08:21:57;18.50;99.90
51733;DHT22;39139;53.144;6.244;2023-07-24T08:24:22;18.60;99.90
51733;DHT22;39139;53.144;6.244;2023-07-24T08:26:48;18.60;99.90
51733;DHT22;39139;53.144;6.244;2023-07-24T08:29:14;18.60;99.90
51733;DHT22;39139;53.144;6.244;2023-07-24T08:31:40;18.60;99.90
51733;DHT22;39139;53.144;6.244;2023-07-24T08:34:05;18.60;99.90
51733;DHT22;39139;53.144;6.244;2023-07-24T08:36:31;18.60;99.90
51733;DHT22;39139;53.144;6.244;2023-07-24T08:38:57;18.70;99.90
51733;DHT22;39139;53.144;6.244;2023-07-24T08:41:23;18.70;99.90
51733;DHT22;39139;53.144;6.244;2023-07-24T08:43:49;18.70;99.90
51733;DHT22;39139;53.144;6.244;2023-07-24T08:46:19;18.70;99.90
51733;DHT22;39139;53.144;6.244;2023-07-24T08:48:46;18.80;99.90
51733;DHT22;39139;53.144;6.244;2023-07-24T08:51:13;18.90;99.90
51733;DHT22;39139;53.144;6.244;2023-07-24T08:53:40;19.00;99.90
51733;DHT22;39139;53.144;6.244;2023-07-24T08:56:08;19.00;99.90
51733;DHT22;39139;53.144;6.244;2023-07-24T08:58:35;19.10;99.90
51733;DHT22;39139;53.144;6.244;2023-07-24T09:01:02;19.20;99.90
51733;DHT22;39139;53.144;6.244;2023-07-24T09:03:29;19.20;99.90
51733;DHT22;39139;53.144;6.244;2023-07-24T09:05:55;19.30;99.90
51733;DHT22;39139;53.144;6.244;2023-07-24T09:08:34;19.30;99.90
51733;DHT22;39139;53.144;6.244;2023-07-24T09:11:01;19.30;99.90
51733;DHT22;39139;53.144;6.244;2023-07-24T09:13:27;19.40;99.90
51733;DHT22;39139;53.144;6.244;2023-07-24T09:15:53;19.40;99.90
51733;DHT22;39139;53.144;6.244;2023-07-24T09:18:19;19.50;99.90
51733;DHT22;39139;53.144;6.244;2023-07-24T09:20:45;19.60;99.90
51733;DHT22;39139;53.144;6.244;2023-07-24T09:23:12;19.70;99.90
51733;DHT22;39139;53.144;6.244;2023-07-24T09:25:39;19.80;99.90
51733;DHT22;39139;53.144;6.244;2023-07-24T09:28:16;19.80;99.90
51733;DHT22;39139;53.144;6.244;2023-07-24T09:30:57;19.80;99.90
51733;DHT22;39139;53.144;6.244;2023-07-24T09:33:23;20.20;99.90
51733;DHT22;39139;53.144;6.244;2023-07-24T09:36:02;20.60;99.90
51733;DHT22;39139;53.144;6.244;2023-07-24T09:38:29;21.20;99.90
51733;DHT22;39139;53.144;6.244;2023-07-24T09:40:56;21.50;99.90
51733;DHT22;39139;53.144;6.244;2023-07-24T09:45:48;21.90;99.90
51733;DHT22;39139;53.144;6.244;2023-07-24T09:48:15;22.00;99.90
51733;DHT22;39139;53.144;6.244;2023-07-24T09:50:42;22.20;99.90
51733;DHT22;39139;53.144;6.244;2023-07-24T09:56:04;22.70;99.90
51733;DHT22;39139;53.144;6.244;2023-07-24T09:58:33;22.80;99.90
51733;DHT22;39139;53.144;6.244;2023-07-24T10:01:00;23.00;99.90
51733;DHT22;39139;53.144;6.244;2023-07-24T10:03:27;23.30;99.90
51733;DHT22;39139;53.144;6.244;2023-07-24T10:05:53;23.40;99.90
51733;DHT22;39139;53.144;6.244;2023-07-24T10:08:19;23.40;99.90
51733;DHT22;39139;53.144;6.244;2023-07-24T10:10:45;23.40;99.90
51733;DHT22;39139;53.144;6.244;2023-07-24T10:13:12;23.40;99.90
51733;DHT22;39139;53.144;6.244;2023-07-24T10:15:41;23.20;99.90
51733;DHT22;39139;53.144;6.244;2023-07-24T10:18:09;22.80;99.90
51733;DHT22;39139;53.144;6.244;2023-07-24T10:20:40;22.50;99.90
51733;DHT22;39139;53.144;6.244;2023-07-24T10:23:10;22.50;99.90
51733;DHT22;39139;53.144;6.244;2023-07-24T10:25:39;22.60;99.90
51733;DHT22;39139;53.144;6.244;2023-07-24T10:28:10;22.50;99.90
51733;DHT22;39139;53.144;6.244;2023-07-24T10:30:41;22.30;99.90
51733;DHT22;39139;53.144;6.244;2023-07-24T10:35:40;22.00;99.90
51733;DHT22;39139;53.144;6.244;2023-07-24T10:38:06;21.90;99.90
51733;DHT22;39139;53.144;6.244;2023-07-24T10:40:33;21.80;99.90
51733;DHT22;39139;53.144;6.244;2023-07-24T10:43:10;21.60;99.90
51733;DHT22;39139;53.144;6.244;2023-07-24T10:48:08;21.10;99.90
51733;DHT22;39139;53.144;6.244;2023-07-24T10:50:41;20.80;99.90
51733;DHT22;39139;53.144;6.244;2023-07-24T10:53:09;20.60;99.90
51733;DHT22;39139;53.144;6.244;2023-07-24T10:55:35;20.40;99.90
51733;DHT22;39139;53.144;6.244;2023-07-24T10:58:01;20.30;99.90
51733;DHT22;39139;53.144;6.244;2023-07-24T11:00:27;20.10;99.90
51733;DHT22;39139;53.144;6.244;2023-07-24T11:02:56;20.10;99.90
51733;DHT22;39139;53.144;6.244;2023-07-24T11:05:22;20.10;99.90
51733;DHT22;39139;53.144;6.244;2023-07-24T11:07:48;20.20;99.90
51733;DHT22;39139;53.144;6.244;2023-07-24T11:10:16;20.40;99.90
51733;DHT22;39139;53.144;6.244;2023-07-24T11:12:41;20.60;99.90
51733;DHT22;39139;53.144;6.244;2023-07-24T11:15:07;20.60;99.90
51733;DHT22;39139;53.144;6.244;2023-07-24T11:17:37;20.60;99.90
51733;DHT22;39139;53.144;6.244;2023-07-24T11:20:10;20.60;99.90
51733;DHT22;39139;53.144;6.244;2023-07-24T11:22:38;20.50;99.90
51733;DHT22;39139;53.144;6.244;2023-07-24T11:25:05;20.50;99.90
51733;DHT22;39139;53.144;6.244;2023-07-24T11:27:32;20.60;99.90
51733;DHT22;39139;53.144;6.244;2023-07-24T11:29:58;20.60;99.90
51733;DHT22;39139;53.144;6.244;2023-07-24T11:32:24;20.80;99.90
51733;DHT22;39139;53.144;6.244;2023-07-24T11:34:50;20.90;99.90
51733;DHT22;39139;53.144;6.244;2023-07-24T11:37:17;21.00;99.90
51733;DHT22;39139;53.144;6.244;2023-07-24T11:39:54;21.00;99.90
51733;DHT22;39139;53.144;6.244;2023-07-24T11:42:19;20.90;99.90
51733;DHT22;39139;53.144;6.244;2023-07-24T11:44:45;20.90;99.90
51733;DHT22;39139;53.144;6.244;2023-07-24T11:47:11;20.70;99.90
51733;DHT22;39139;53.144;6.244;2023-07-24T11:49:36;20.60;99.90
51733;DHT22;39139;53.144;6.244;2023-07-24T11:52:06;20.40;99.90
51733;DHT22;39139;53.144;6.244;2023-07-24T11:54:35;20.20;99.90
51733;DHT22;39139;53.144;6.244;2023-07-24T11:57:01;20.10;99.90
51733;DHT22;39139;53.144;6.244;2023-07-24T11:59:27;20.00;99.90
51733;DHT22;39139;53.144;6.244;2023-07-24T12:01:53;19.90;99.90
51733;DHT22;39139;53.144;6.244;2023-07-24T12:04:19;19.90;99.90
51733;DHT22;39139;53.144;6.244;2023-07-24T12:06:45;19.80;99.90
51733;DHT22;39139;53.144;6.244;2023-07-24T12:09:11;19.80;99.90
51733;DHT22;39139;53.144;6.244;2023-07-24T12:11:41;19.70;99.90
51733;DHT22;39139;53.144;6.244;2023-07-24T12:14:07;19.70;99.90
51733;DHT22;39139;53.144;6.244;2023-07-24T12:16:36;19.70;99.90
51733;DHT22;39139;53.144;6.244;2023-07-24T12:19:02;19.70;99.90
51733;DHT22;39139;53.144;6.244;2023-07-24T12:21:28;19.60;99.90
51733;DHT22;39139;53.144;6.244;2023-07-24T12:23:54;19.60;99.90
51733;DHT22;39139;53.144;6.244;2023-07-24T12:26:19;19.50;99.90
51733;DHT22;39139;53.144;6.244;2023-07-24T12:28:45;19.50;99.90
51733;DHT22;39139;53.144;6.244;2023-07-24T12:31:11;19.40;99.90
51733;DHT22;39139;53.144;6.244;2023-07-24T12:33:37;19.40;99.90
51733;DHT22;39139;53.144;6.244;2023-07-24T12:36:02;19.30;99.90
51733;DHT22;39139;53.144;6.244;2023-07-24T12:38:28;19.30;99.90
51733;DHT22;39139;53.144;6.244;2023-07-24T12:40:55;19.30;99.90
51733;DHT22;39139;53.144;6.244;2023-07-24T12:43:20;19.30;99.90
51733;DHT22;39139;53.144;6.244;2023-07-24T12:45:46;19.30;99.90
51733;DHT22;39139;53.144;6.244;2023-07-24T12:48:12;19.30;99.90
51733;DHT22;39139;53.144;6.244;2023-07-24T12:50:37;19.30;99.90
51733;DHT22;39139;53.144;6.244;2023-07-24T12:53:03;19.30;99.90
51733;DHT22;39139;53.144;6.244;2023-07-24T12:55:29;19.40;99.90
51733;DHT22;39139;53.144;6.244;2023-07-24T12:57:55;19.40;99.90
51733;DHT22;39139;53.144;6.244;2023-07-24T13:00:21;19.60;99.90
51733;DHT22;39139;53.144;6.244;2023-07-24T13:02:49;19.70;99.90
51733;DHT22;39139;53.144;6.244;2023-07-24T13:05:14;19.90;99.90
51733;DHT22;39139;53.144;6.244;2023-07-24T13:07:40;20.10;99.90
51733;DHT22;39139;53.144;6.244;2023-07-24T13:10:06;20.30;99.90
51733;DHT22;39139;53.144;6.244;2023-07-24T13:12:32;20.30;99.90
51733;DHT22;39139;53.144;6.244;2023-07-24T13:14:58;20.40;99.90
51733;DHT22;39139;53.144;6.244;2023-07-24T13:17:23;20.40;99.90
51733;DHT22;39139;53.144;6.244;2023-07-24T13:19:49;20.30;99.90
51733;DHT22;39139;53.144;6.244;2023-07-24T13:22:15;20.30;99.90
51733;DHT22;39139;53.144;6.244;2023-07-24T13:24:40;20.20;99.90
51733;DHT22;39139;53.144;6.244;2023-07-24T13:27:09;20.10;99.90
51733;DHT22;39139;53.144;6.244;2023-07-24T13:29:35;20.00;99.90
51733;DHT22;39139;53.144;6.244;2023-07-24T13:32:00;20.00;99.90
51733;DHT22;39139;53.144;6.244;2023-07-24T13:34:26;19.90;99.90
51733;DHT22;39139;53.144;6.244;2023-07-24T13:36:51;19.90;99.90
51733;DHT22;39139;53.144;6.244;2023-07-24T13:39:17;19.80;99.90
51733;DHT22;39139;53.144;6.244;2023-07-24T13:41:43;19.70;99.90
51733;DHT22;39139;53.144;6.244;2023-07-24T13:44:09;19.70;99.90
51733;DHT22;39139;53.144;6.244;2023-07-24T13:46:35;19.60;99.90
51733;DHT22;39139;53.144;6.244;2023-07-24T13:49:01;19.60;99.90
51733;DHT22;39139;53.144;6.244;2023-07-24T13:51:26;19.70;99.90
51733;DHT22;39139;53.144;6.244;2023-07-24T13:53:52;19.70;99.90
51733;DHT22;39139;53.144;6.244;2023-07-24T13:56:19;19.90;99.90
51733;DHT22;39139;53.144;6.244;2023-07-24T13:58:47;20.00;99.90
51733;DHT22;39139;53.144;6.244;2023-07-24T14:01:14;20.00;99.90
51733;DHT22;39139;53.144;6.244;2023-07-24T14:03:40;20.00;99.90
51733;DHT22;39139;53.144;6.244;2023-07-24T14:06:05;19.90;99.90
51733;DHT22;39139;53.144;6.244;2023-07-24T14:08:31;19.70;99.90
51733;DHT22;39139;53.144;6.244;2023-07-24T14:10:57;19.50;99.90
51733;DHT22;39139;53.144;6.244;2023-07-24T14:13:22;19.40;99.90
51733;DHT22;39139;53.144;6.244;2023-07-24T14:15:48;19.30;99.90
51733;DHT22;39139;53.144;6.244;2023-07-24T14:18:14;19.20;99.90
51733;DHT22;39139;53.144;6.244;2023-07-24T14:20:39;19.10;99.90
51733;DHT22;39139;53.144;6.244;2023-07-24T14:23:06;19.00;99.90
51733;DHT22;39139;53.144;6.244;2023-07-24T14:25:33;18.90;99.90
51733;DHT22;39139;53.144;6.244;2023-07-24T14:27:58;18.90;99.90
51733;DHT22;39139;53.144;6.244;2023-07-24T14:30:24;18.90;99.90
51733;DHT22;39139;53.144;6.244;2023-07-24T14:32:50;19.10;99.90
51733;DHT22;39139;53.144;6.244;2023-07-24T14:35:16;19.20;99.90
51733;DHT22;39139;53.144;6.244;2023-07-24T14:37:41;19.30;99.90
51733;DHT22;39139;53.144;6.244;2023-07-24T14:40:10;19.20;99.90
51733;DHT22;39139;53.144;6.244;2023-07-24T14:42:37;19.20;99.90
51733;DHT22;39139;53.144;6.244;2023-07-24T14:45:03;19.10;99.90
51733;DHT22;39139;53.144;6.244;2023-07-24T14:47:29;19.00;99.90
51733;DHT22;39139;53.144;6.244;2023-07-24T14:49:56;18.90;99.90
51733;DHT22;39139;53.144;6.244;2023-07-24T14:52:22;18.80;99.90
51733;DHT22;39139;53.144;6.244;2023-07-24T14:54:48;18.70;99.90
51733;DHT22;39139;53.144;6.244;2023-07-24T14:57:13;18.90;99.90
51733;DHT22;39139;53.144;6.244;2023-07-24T14:59:39;18.90;99.90
51733;DHT22;39139;53.144;6.244;2023-07-24T15:02:05;18.90;99.90
51733;DHT22;39139;53.144;6.244;2023-07-24T15:04:31;18.90;99.90
51733;DHT22;39139;53.144;6.244;2023-07-24T15:06:56;18.80;99.90
51733;DHT22;39139;53.144;6.244;2023-07-24T15:09:22;18.80;99.90
51733;DHT22;39139;53.144;6.244;2023-07-24T15:11:48;18.80;99.90
51733;DHT22;39139;53.144;6.244;2023-07-24T15:14:14;18.70;99.90
51733;DHT22;39139;53.144;6.244;2023-07-24T15:16:39;18.60;99.90
51733;DHT22;39139;53.144;6.244;2023-07-24T15:19:05;18.50;99.90
51733;DHT22;39139;53.144;6.244;2023-07-24T15:21:30;18.50;99.90
51733;DHT22;39139;53.144;6.244;2023-07-24T15:23:56;18.40;99.90
51733;DHT22;39139;53.144;6.244;2023-07-24T15:26:22;18.50;99.90
51733;DHT22;39139;53.144;6.244;2023-07-24T15:28:47;18.40;99.90
51733;DHT22;39139;53.144;6.244;2023-07-24T15:31:13;18.40;99.90
51733;DHT22;39139;53.144;6.244;2023-07-24T15:33:39;18.30;99.90
51733;DHT22;39139;53.144;6.244;2023-07-24T15:36:04;18.30;99.90
51733;DHT22;39139;53.144;6.244;2023-07-24T15:38:30;18.40;99.90
51733;DHT22;39139;53.144;6.244;2023-07-24T15:40:56;18.40;99.90